Time;durP1;ratioP1;P1;durP2;ratioP2;P2;SDS_P1;SDS_P2;PMS_P1;PMS_P2;Temp;Humidity;BMP_temperature;BMP_pressure;BME280_temperature;BME280_humidity;BME280_pressure;Samples;Min_cycle;Max_cycle;Signal;HPM_P1;HPM_P2
2023/11/28 00:01:04;;;;;;;1.63;1.05;;;-0.50;99.90;;;;;;4952811;28;22740;-61
2023/11/28 00:03:31;;;;;;;1.83;0.85;;;-0.50;99.90;;;;;;4987145;28;20179;-62
2023/11/28 00:05:56;;;;;;;1.17;1.00;;;-0.50;99.90;;;;;;4991564;28;20017;-63
2023/11/28 00:08:22;;;;;;;1.40;1.17;;;-0.50;99.90;;;;;;4961310;28;20025;-62
2023/11/28 00:10:48;;;;;;;1.42;1.23;;;-0.50;99.90;;;;;;4978100;28;20433;-61
2023/11/28 00:13:14;;;;;;;1.17;1.00;;;-0.50;99.90;;;;;;4966172;28;20036;-62
2023/11/28 00:15:42;;;;;;;1.17;0.93;;;-0.50;99.90;;;;;;4973894;28;20033;-64
2023/11/28 00:18:07;;;;;;;1.85;1.30;;;-0.50;99.90;;;;;;4981074;28;20037;-62
2023/11/28 00:20:33;;;;;;;2.45;1.00;;;-0.50;99.90;;;;;;4971197;28;20021;-62
2023/11/28 00:22:58;;;;;;;1.40;1.15;;;-0.50;99.90;;;;;;4939404;28;20029;-63
2023/11/28 00:25:24;;;;;;;1.52;1.13;;;-0.50;99.90;;;;;;4962363;28;20032;-62
2023/11/28 00:27:50;;;;;;;1.65;1.25;;;-0.50;99.90;;;;;;4964958;28;20033;-61
2023/11/28 00:30:15;;;;;;;1.83;1.33;;;-0.40;99.90;;;;;;4994387;28;20032;-64
2023/11/28 00:32:42;;;;;;;2.47;1.40;;;-0.40;99.90;;;;;;4978851;28;20053;-62
2023/11/28 00:35:08;;;;;;;2.90;1.48;;;-0.40;99.90;;;;;;4930343;28;20021;-64
2023/11/28 00:37:34;;;;;;;1.80;1.40;;;-0.40;99.90;;;;;;4933628;28;20028;-63
2023/11/28 00:39:59;;;;;;;2.20;1.75;;;-0.40;99.90;;;;;;4945917;28;21429;-63
2023/11/28 00:42:25;;;;;;;2.15;1.83;;;-0.40;99.90;;;;;;4995868;28;20059;-63
2023/11/28 00:44:52;;;;;;;2.33;2.00;;;-0.40;99.90;;;;;;4991433;28;20070;-65
2023/11/28 00:47:18;;;;;;;1.98;1.63;;;-0.40;99.90;;;;;;4965035;28;20036;-64
2023/11/28 00:49:44;;;;;;;2.20;1.83;;;-0.40;99.90;;;;;;4941323;28;20037;-62
2023/11/28 00:52:10;;;;;;;2.38;2.13;;;-0.30;99.90;;;;;;4943582;28;20582;-62
2023/11/28 00:54:38;;;;;;;3.10;2.00;;;-0.30;99.90;;;;;;4992518;28;20040;-64
2023/11/28 00:57:07;;;;;;;2.55;1.90;;;-0.20;99.90;;;;;;4959903;28;20169;-63
2023/11/28 00:59:33;;;;;;;2.17;1.88;;;-0.20;99.90;;;;;;4975248;28;20116;-61
2023/11/28 01:02:00;;;;;;;2.40;2.20;;;-0.20;99.90;;;;;;4939268;28;20091;-63
2023/11/28 01:04:26;;;;;;;2.28;1.83;;;-0.10;99.90;;;;;;4948437;28;20094;-63
2023/11/28 01:06:51;;;;;;;2.97;1.88;;;-0.10;99.90;;;;;;4935976;28;20025;-63
2023/11/28 01:09:17;;;;;;;3.25;1.70;;;-0.10;99.90;;;;;;4994504;28;21937;-62
2023/11/28 01:11:43;;;;;;;3.50;1.85;;;-0.10;99.90;;;;;;4977951;28;20041;-65
2023/11/28 01:14:08;;;;;;;1.63;1.50;;;-0.10;99.90;;;;;;4930386;28;20401;-60
2023/11/28 01:16:34;;;;;;;2.47;2.08;;;-0.10;99.90;;;;;;4919779;28;20029;-62
2023/11/28 01:19:00;;;;;;;2.22;1.50;;;0.00;99.90;;;;;;4932351;28;22197;-63
2023/11/28 01:21:26;;;;;;;2.28;1.60;;;0.00;99.90;;;;;;4983547;28;20108;-61
2023/11/28 01:23:51;;;;;;;3.70;2.00;;;0.00;99.90;;;;;;4958482;28;20427;-64
2023/11/28 01:26:17;;;;;;;1.65;1.55;;;0.00;99.90;;;;;;4932731;28;20699;-63
2023/11/28 01:28:43;;;;;;;2.22;1.88;;;0.00;99.90;;;;;;4933248;28;20037;-62
2023/11/28 01:31:11;;;;;;;2.15;1.70;;;0.00;99.90;;;;;;4923091;28;21396;-63
2023/11/28 01:33:37;;;;;;;1.92;1.58;;;0.00;99.90;;;;;;4992035;28;20751;-62
2023/11/28 01:36:07;;;;;;;2.97;2.10;;;-0.10;99.90;;;;;;4926866;28;20025;-63
2023/11/28 01:38:32;;;;;;;1.77;1.58;;;-0.10;99.90;;;;;;4967010;28;20069;-61
2023/11/28 01:40:59;;;;;;;3.03;1.65;;;0.00;99.90;;;;;;4926810;28;20129;-62
2023/11/28 01:43:29;;;;;;;1.50;0.98;;;0.00;99.90;;;;;;4928012;28;20029;-62
2023/11/28 01:45:55;;;;;;;1.70;1.23;;;-0.10;99.90;;;;;;4907504;28;20094;-65
2023/11/28 01:48:22;;;;;;;1.55;1.30;;;0.00;99.90;;;;;;4965598;28;21325;-63
2023/11/28 01:50:48;;;;;;;1.38;1.27;;;-0.10;99.90;;;;;;4964147;28;20076;-63
2023/11/28 01:53:16;;;;;;;1.67;1.10;;;-0.10;99.90;;;;;;4913054;28;20025;-62
2023/11/28 01:55:42;;;;;;;1.75;1.60;;;-0.10;99.90;;;;;;4924173;28;20103;-62
2023/11/28 01:58:08;;;;;;;1.80;1.70;;;-0.10;99.90;;;;;;4927089;28;22227;-63
2023/11/28 02:00:34;;;;;;;2.88;1.88;;;-0.10;99.90;;;;;;4963670;28;20026;-61
2023/11/28 02:03:02;;;;;;;2.47;2.28;;;0.00;99.90;;;;;;4947537;28;20029;-62
2023/11/28 02:05:28;;;;;;;2.42;1.95;;;0.00;99.90;;;;;;4938013;28;20038;-63
2023/11/28 02:07:55;;;;;;;2.42;1.50;;;0.00;99.90;;;;;;4923867;28;20032;-63
2023/11/28 02:10:23;;;;;;;1.90;1.30;;;-0.10;99.90;;;;;;4919777;28;20037;-63
2023/11/28 02:12:48;;;;;;;1.67;1.52;;;-0.20;99.90;;;;;;4931389;28;20095;-64
2023/11/28 02:15:14;;;;;;;1.45;1.08;;;-0.20;99.90;;;;;;4948556;28;20108;-62
2023/11/28 02:17:40;;;;;;;0.88;0.88;;;-0.20;99.90;;;;;;4965337;28;20040;-62
2023/11/28 02:20:08;;;;;;;0.93;0.73;;;-0.20;99.90;;;;;;4913751;28;20030;-60
2023/11/28 02:22:34;;;;;;;1.00;0.80;;;-0.30;99.90;;;;;;4894840;28;20042;-64
2023/11/28 02:25:01;;;;;;;0.50;0.50;;;-0.30;99.90;;;;;;4910523;28;21512;-62
2023/11/28 02:27:27;;;;;;;0.60;0.60;;;-0.30;99.90;;;;;;4959687;28;20613;-64
2023/11/28 02:29:52;;;;;;;0.77;0.63;;;-0.30;99.90;;;;;;4962168;28;20033;-62
2023/11/28 02:32:19;;;;;;;0.60;0.50;;;-0.40;99.90;;;;;;4889292;28;20091;-63
2023/11/28 02:34:44;;;;;;;0.50;0.47;;;-0.40;99.90;;;;;;4906086;28;20041;-63
2023/11/28 02:37:10;;;;;;;0.68;0.40;;;-0.40;99.90;;;;;;4907611;28;22483;-62
2023/11/28 02:39:36;;;;;;;0.63;0.63;;;-0.50;99.90;;;;;;4972704;28;20068;-62
2023/11/28 02:42:02;;;;;;;0.70;0.70;;;-0.50;99.90;;;;;;4918278;28;20022;-65
2023/11/28 02:44:28;;;;;;;1.00;0.90;;;-0.50;99.90;;;;;;4913906;28;20421;-63
2023/11/28 02:46:53;;;;;;;1.75;0.90;;;-0.60;99.90;;;;;;4959617;28;20033;-63
2023/11/28 02:49:19;;;;;;;1.30;1.15;;;-0.60;99.90;;;;;;4943008;28;20026;-63
2023/11/28 02:51:44;;;;;;;3.80;1.55;;;-0.60;99.90;;;;;;4930372;28;20030;-62
2023/11/28 02:54:10;;;;;;;1.35;1.05;;;-0.60;99.90;;;;;;4937903;28;20044;-65
2023/11/28 02:56:35;;;;;;;2.03;1.42;;;-0.60;99.90;;;;;;5020320;28;20025;-63
2023/11/28 02:59:01;;;;;;;1.50;1.40;;;-0.60;99.90;;;;;;4939566;28;20030;-62
2023/11/28 03:01:26;;;;;;;1.65;1.55;;;-0.60;99.90;;;;;;4951684;28;20040;-63
2023/11/28 03:03:52;;;;;;;1.77;1.58;;;-0.60;99.90;;;;;;4931898;28;20105;-64
2023/11/28 03:06:18;;;;;;;2.40;1.70;;;-0.60;99.90;;;;;;4942403;28;21512;-63
2023/11/28 03:08:43;;;;;;;2.95;1.63;;;-0.50;99.90;;;;;;4987045;28;20108;-64
2023/11/28 03:11:09;;;;;;;2.22;1.95;;;-0.50;99.90;;;;;;4921872;28;20557;-62
2023/11/28 03:13:34;;;;;;;2.63;1.77;;;-0.50;99.90;;;;;;4944884;28;20032;-64
2023/11/28 03:16:01;;;;;;;2.10;1.77;;;-0.40;99.90;;;;;;4942889;28;20043;-64
2023/11/28 03:18:27;;;;;;;5.13;2.15;;;-0.40;99.90;;;;;;4935385;28;21054;-62
2023/11/28 03:20:52;;;;;;;4.60;2.53;;;-0.40;99.90;;;;;;4988030;28;20029;-59
2023/11/28 03:23:18;;;;;;;2.72;2.35;;;-0.40;99.90;;;;;;4915194;28;20029;-62
2023/11/28 03:25:43;;;;;;;3.22;2.63;;;-0.30;99.90;;;;;;4914683;28;20022;-63
2023/11/28 03:28:09;;;;;;;2.97;2.28;;;-0.30;99.90;;;;;;4949579;28;20049;-62
2023/11/28 03:30:34;;;;;;;2.22;2.00;;;-0.30;99.90;;;;;;5026490;28;20087;-62
2023/11/28 03:33:00;;;;;;;3.13;2.60;;;-0.30;99.90;;;;;;4998876;28;20021;-64
2023/11/28 03:35:28;;;;;;;3.00;2.10;;;-0.30;99.90;;;;;;5009378;28;20028;-61
2023/11/28 03:37:54;;;;;;;4.78;2.28;;;-0.30;99.90;;;;;;4988537;28;20076;-63
2023/11/28 03:40:20;;;;;;;6.35;2.72;;;-0.20;99.90;;;;;;5012863;28;20787;-63
2023/11/28 03:42:45;;;;;;;2.85;2.35;;;-0.20;99.90;;;;;;5025385;28;20026;-62
2023/11/28 03:45:12;;;;;;;2.92;2.50;;;-0.20;99.90;;;;;;5010833;28;20060;-62
2023/11/28 03:47:38;;;;;;;3.83;2.60;;;-0.20;99.90;;;;;;5008813;28;20017;-62
2023/11/28 03:50:04;;;;;;;3.63;2.67;;;-0.20;99.90;;;;;;5013515;28;20021;-62
2023/11/28 03:52:30;;;;;;;3.25;2.78;;;-0.20;99.90;;;;;;4996774;28;20040;-63
2023/11/28 03:54:56;;;;;;;3.20;2.35;;;-0.20;99.90;;;;;;5026712;28;20028;-60
2023/11/28 03:57:21;;;;;;;3.65;2.20;;;-0.20;99.90;;;;;;5011834;28;20029;-60
2023/11/28 03:59:47;;;;;;;2.83;2.15;;;-0.20;99.90;;;;;;5007378;28;20037;-62
2023/11/28 04:02:12;;;;;;;3.60;2.70;;;-0.20;99.90;;;;;;5004941;28;20632;-63
2023/11/28 04:07:07;;;;;;;2.72;2.40;;;-0.30;99.90;;;;;;4947198;28;20089;-45
2023/11/28 04:09:32;;;;;;;3.08;2.22;;;-0.30;99.90;;;;;;4962462;28;20066;-48
2023/11/28 04:11:58;;;;;;;2.95;2.22;;;-0.30;99.90;;;;;;4937495;28;20035;-47
2023/11/28 04:14:24;;;;;;;4.05;2.65;;;-0.30;99.90;;;;;;4940983;28;20046;-46
2023/11/28 04:16:49;;;;;;;2.65;2.25;;;-0.30;99.90;;;;;;4941771;28;20034;-48
2023/11/28 04:19:15;;;;;;;4.20;2.50;;;-0.30;99.90;;;;;;4935077;28;20061;-49
2023/11/28 04:21:40;;;;;;;3.53;2.83;;;-0.30;99.90;;;;;;4959199;28;20062;-49
2023/11/28 04:24:07;;;;;;;3.03;2.45;;;-0.30;99.90;;;;;;4938490;28;20026;-47
2023/11/28 04:26:33;;;;;;;2.50;2.30;;;-0.30;99.90;;;;;;4936214;28;20629;-47
2023/11/28 04:28:59;;;;;;;4.28;3.08;;;-0.40;99.90;;;;;;4924339;28;20041;-50
2023/11/28 04:31:24;;;;;;;3.38;2.83;;;-0.40;99.90;;;;;;4934143;28;20046;-49
2023/11/28 04:33:50;;;;;;;4.82;2.50;;;-0.40;99.90;;;;;;4964347;28;20039;-50
2023/11/28 04:36:16;;;;;;;5.32;2.72;;;-0.40;99.90;;;;;;4938438;28;20551;-46
2023/11/28 04:38:42;;;;;;;4.10;2.55;;;-0.30;99.90;;;;;;4940387;28;20033;-51
2023/11/28 04:41:11;;;;;;;3.63;2.15;;;-0.40;99.90;;;;;;4928349;28;20022;-48
2023/11/28 04:43:36;;;;;;;3.50;2.53;;;-0.40;99.90;;;;;;4927738;28;20384;-48
2023/11/28 04:46:02;;;;;;;3.95;2.50;;;-0.40;99.90;;;;;;4939803;28;20033;-57
2023/11/28 04:48:27;;;;;;;3.25;2.72;;;-0.30;99.90;;;;;;4974810;28;20031;-51
2023/11/28 04:50:53;;;;;;;3.35;2.67;;;-0.40;99.90;;;;;;4885467;28;20027;-47
2023/11/28 04:53:18;;;;;;;4.05;2.60;;;-0.40;99.90;;;;;;4848173;28;20031;-46
2023/11/28 04:55:44;;;;;;;4.55;2.85;;;-0.40;99.90;;;;;;4894173;28;20530;-58
2023/11/28 04:58:10;;;;;;;8.15;2.38;;;-0.40;99.90;;;;;;4908386;28;20593;-49
2023/11/28 05:00:35;;;;;;;3.47;2.58;;;-0.40;99.90;;;;;;4911053;28;20038;-47
2023/11/28 05:03:01;;;;;;;3.78;2.85;;;-0.40;99.90;;;;;;4860494;28;20023;-49
2023/11/28 05:05:26;;;;;;;3.42;2.70;;;-0.30;99.90;;;;;;4900585;28;20491;-47
2023/11/28 05:07:52;;;;;;;5.30;2.40;;;-0.30;99.90;;;;;;4911418;28;20018;-47
2023/11/28 05:10:17;;;;;;;4.35;2.78;;;-0.30;99.90;;;;;;4953471;28;22279;-46
2023/11/28 05:12:43;;;;;;;3.70;2.45;;;-0.40;99.90;;;;;;4940227;28;20031;-46
2023/11/28 05:15:08;;;;;;;5.20;3.10;;;-0.30;99.90;;;;;;4907516;28;20054;-47
2023/11/28 05:17:35;;;;;;;3.22;2.67;;;-0.40;99.90;;;;;;4890855;28;20029;-47
2023/11/28 05:20:01;;;;;;;2.92;2.50;;;-0.40;99.90;;;;;;4913466;28;21608;-46
2023/11/28 05:22:26;;;;;;;4.68;3.08;;;-0.40;99.90;;;;;;4909630;28;21733;-47
2023/11/28 05:24:52;;;;;;;3.03;2.22;;;-0.40;99.90;;;;;;4935431;28;20030;-56
2023/11/28 05:27:17;;;;;;;5.15;2.95;;;-0.40;99.90;;;;;;4906313;28;20033;-47
2023/11/28 05:29:43;;;;;;;4.63;2.47;;;-0.40;99.90;;;;;;4897970;28;20030;-50
2023/11/28 05:32:08;;;;;;;4.10;2.63;;;-0.40;99.90;;;;;;4910458;28;22790;-45
2023/11/28 05:34:34;;;;;;;3.53;2.53;;;-0.40;99.90;;;;;;4953544;28;20534;-49
2023/11/28 05:37:00;;;;;;;4.50;2.45;;;-0.40;99.90;;;;;;4928955;28;20094;-56
2023/11/28 05:39:26;;;;;;;5.65;2.25;;;-0.40;99.90;;;;;;4911857;28;20158;-46
2023/11/28 05:41:51;;;;;;;4.00;2.50;;;-0.40;99.90;;;;;;4890898;28;20022;-47
2023/11/28 05:44:17;;;;;;;5.13;2.55;;;-0.40;99.90;;;;;;4907426;28;20463;-46
2023/11/28 05:46:42;;;;;;;2.30;2.08;;;-0.40;99.90;;;;;;4932955;28;20054;-58
2023/11/28 05:49:08;;;;;;;5.88;2.10;;;-0.40;99.90;;;;;;4887967;28;20124;-49
2023/11/28 05:51:33;;;;;;;2.90;2.63;;;-0.40;99.90;;;;;;4930521;28;20037;-47
2023/11/28 05:53:59;;;;;;;5.93;2.40;;;-0.40;99.90;;;;;;4878313;28;20026;-45
2023/11/28 05:56:25;;;;;;;3.95;2.55;;;-0.40;99.90;;;;;;4890083;28;20038;-48
2023/11/28 05:58:51;;;;;;;4.20;2.20;;;-0.50;99.90;;;;;;4887842;28;20513;-58
2023/11/28 06:01:16;;;;;;;2.58;2.08;;;-0.50;99.90;;;;;;4926557;28;20038;-46
2023/11/28 06:03:42;;;;;;;3.35;1.88;;;-0.50;99.90;;;;;;4919848;28;20026;-47
2023/11/28 06:06:08;;;;;;;3.53;1.88;;;-0.50;99.90;;;;;;4902037;28;20059;-47
2023/11/28 06:08:34;;;;;;;3.17;1.88;;;-0.50;99.90;;;;;;4906296;28;20121;-48
2023/11/28 06:11:00;;;;;;;4.22;2.20;;;-0.50;99.90;;;;;;4866608;28;20482;-48
2023/11/28 06:13:27;;;;;;;3.10;1.90;;;-0.50;99.90;;;;;;4940245;28;21412;-47
2023/11/28 06:15:52;;;;;;;2.45;1.65;;;-0.60;99.90;;;;;;4920240;28;20084;-47
2023/11/28 06:18:18;;;;;;;2.65;1.98;;;-0.60;99.90;;;;;;4878346;28;20038;-46
2023/11/28 06:20:44;;;;;;;4.55;2.05;;;-0.60;99.90;;;;;;4858854;28;20030;-51
2023/11/28 06:23:11;;;;;;;2.22;2.00;;;-0.60;99.90;;;;;;4898397;28;21261;-46
2023/11/28 06:25:36;;;;;;;4.65;2.05;;;-0.60;99.90;;;;;;4937734;28;20019;-48
2023/11/28 06:28:02;;;;;;;4.53;2.40;;;-0.60;99.90;;;;;;4914403;28;20022;-57
2023/11/28 06:30:28;;;;;;;2.45;1.70;;;-0.60;99.90;;;;;;4894290;28;20022;-49
2023/11/28 06:32:53;;;;;;;3.63;2.08;;;-0.60;99.90;;;;;;4878452;28;20104;-49
2023/11/28 06:35:19;;;;;;;5.47;2.30;;;-0.60;99.90;;;;;;4874973;28;20113;-47
2023/11/28 06:37:45;;;;;;;2.65;2.20;;;-0.70;99.90;;;;;;4925745;28;20445;-57
2023/11/28 06:40:11;;;;;;;4.63;2.38;;;-0.60;99.90;;;;;;4892825;28;21600;-55
2023/11/28 06:42:36;;;;;;;2.45;2.05;;;-0.70;99.90;;;;;;4959685;28;20109;-48
2023/11/28 06:45:02;;;;;;;2.05;1.90;;;-0.70;99.90;;;;;;4901709;28;21601;-49
2023/11/28 06:47:28;;;;;;;3.70;2.08;;;-0.60;99.90;;;;;;4967434;28;20026;-48
2023/11/28 06:49:54;;;;;;;3.22;2.20;;;-0.60;99.90;;;;;;4948774;28;20373;-50
2023/11/28 06:52:19;;;;;;;3.95;2.25;;;-0.60;99.90;;;;;;4940128;28;21612;-46
2023/11/28 06:54:45;;;;;;;3.92;2.85;;;-0.60;99.90;;;;;;4948574;28;20400;-46
2023/11/28 06:57:11;;;;;;;2.47;1.75;;;-0.70;99.90;;;;;;4938867;28;20449;-46
2023/11/28 06:59:36;;;;;;;3.85;2.33;;;-0.70;99.90;;;;;;4912748;28;20027;-56
2023/11/28 07:02:02;;;;;;;4.53;2.03;;;-0.70;99.90;;;;;;4923363;28;20034;-48
2023/11/28 07:04:28;;;;;;;3.40;2.47;;;-0.80;99.90;;;;;;4911452;28;22399;-49
2023/11/28 07:06:53;;;;;;;2.55;2.35;;;-0.80;99.90;;;;;;4959686;28;20478;-47
2023/11/28 07:09:19;;;;;;;2.90;2.25;;;-0.70;99.90;;;;;;4903296;28;20037;-50
2023/11/28 07:11:44;;;;;;;4.50;2.83;;;-0.70;99.90;;;;;;4943841;28;20026;-49
2023/11/28 07:14:10;;;;;;;3.90;2.78;;;-0.80;99.90;;;;;;4928766;28;20034;-48
2023/11/28 07:16:35;;;;;;;4.80;3.22;;;-0.80;99.90;;;;;;4920152;28;20030;-48
2023/11/28 07:19:01;;;;;;;4.50;2.75;;;-0.80;99.90;;;;;;4951800;28;20105;-57
2023/11/28 07:21:27;;;;;;;3.42;2.53;;;-0.80;99.90;;;;;;4900637;28;20022;-49
2023/11/28 07:23:52;;;;;;;4.25;2.78;;;-0.80;99.90;;;;;;4858198;28;20023;-51
2023/11/28 07:26:21;;;;;;;3.33;2.30;;;-0.80;99.90;;;;;;4885731;28;20152;-50
2023/11/28 07:28:46;;;;;;;3.58;2.72;;;-0.80;99.90;;;;;;4960081;28;20033;-46
2023/11/28 07:31:16;;;;;;;4.50;2.45;;;-0.80;99.90;;;;;;4968464;28;20027;-45
2023/11/28 07:33:41;;;;;;;2.85;2.42;;;-0.80;99.90;;;;;;4974279;28;20026;-46
2023/11/28 07:36:12;;;;;;;5.05;3.15;;;-0.80;99.90;;;;;;4958307;28;20050;-53
2023/11/28 07:38:38;;;;;;;5.50;2.80;;;-0.80;99.90;;;;;;4963785;28;20035;-47
2023/11/28 07:41:04;;;;;;;3.85;3.20;;;-0.80;99.90;;;;;;4970827;28;20029;-47
2023/11/28 07:43:32;;;;;;;3.15;2.30;;;-0.80;99.90;;;;;;4981562;28;20536;-46
2023/11/28 07:45:58;;;;;;;4.68;2.97;;;-0.80;99.90;;;;;;4950897;28;20034;-46
2023/11/28 07:48:23;;;;;;;2.85;2.15;;;-0.80;99.90;;;;;;4930360;28;20065;-51
2023/11/28 07:50:49;;;;;;;5.13;2.53;;;-0.80;99.90;;;;;;4952239;28;20045;-48
2023/11/28 07:53:15;;;;;;;4.43;2.22;;;-0.80;99.90;;;;;;4970498;28;20022;-51
2023/11/28 07:55:41;;;;;;;6.80;2.90;;;-0.80;99.90;;;;;;4938625;28;20109;-50
2023/11/28 07:58:06;;;;;;;3.20;2.10;;;-0.80;99.90;;;;;;4911462;28;20081;-49
2023/11/28 08:00:32;;;;;;;3.58;2.47;;;-0.80;99.90;;;;;;4931247;28;20569;-49
2023/11/28 08:02:57;;;;;;;3.80;2.83;;;-0.80;99.90;;;;;;4936887;28;20487;-47
2023/11/28 08:05:23;;;;;;;3.13;2.40;;;-0.80;99.90;;;;;;4973244;28;20033;-50
2023/11/28 08:07:50;;;;;;;2.22;2.03;;;-0.80;99.90;;;;;;4942081;28;20104;-49
2023/11/28 08:10:15;;;;;;;4.68;2.58;;;-0.80;99.90;;;;;;4929969;28;20019;-49
2023/11/28 08:12:41;;;;;;;6.43;2.45;;;-0.80;99.90;;;;;;4932675;28;20022;-47
2023/11/28 08:15:08;;;;;;;2.55;2.28;;;-0.80;99.90;;;;;;4936187;28;20030;-50
2023/11/28 08:17:35;;;;;;;2.42;1.88;;;-0.70;99.90;;;;;;4965174;28;20038;-48
2023/11/28 08:20:01;;;;;;;4.43;2.50;;;-0.70;99.90;;;;;;4938198;28;20449;-56
2023/11/28 08:22:26;;;;;;;2.67;1.90;;;-0.70;99.90;;;;;;4939843;28;20054;-47
2023/11/28 08:24:53;;;;;;;2.00;1.77;;;-0.70;99.90;;;;;;4974421;28;20068;-49
2023/11/28 08:27:19;;;;;;;5.88;2.40;;;-0.80;99.90;;;;;;4963909;28;20037;-47
2023/11/28 08:29:45;;;;;;;3.60;1.92;;;-0.80;99.90;;;;;;4967509;28;20047;-50
2023/11/28 08:32:11;;;;;;;2.00;1.67;;;-0.80;99.90;;;;;;4956985;28;21457;-50
2023/11/28 08:34:36;;;;;;;3.15;2.10;;;-0.80;99.90;;;;;;4989448;28;20096;-52
2023/11/28 08:37:03;;;;;;;3.65;2.47;;;-0.80;99.90;;;;;;4973578;28;20030;-50
2023/11/28 08:39:29;;;;;;;4.15;3.03;;;-0.80;99.90;;;;;;4965737;28;20030;-49
2023/11/28 08:41:54;;;;;;;3.33;3.03;;;-0.80;99.90;;;;;;4961534;28;20667;-50
2023/11/28 08:44:20;;;;;;;3.70;2.35;;;-0.80;99.90;;;;;;4958109;28;21431;-46
2023/11/28 08:46:46;;;;;;;3.85;2.80;;;-0.90;99.90;;;;;;4988016;28;20026;-49
2023/11/28 08:49:11;;;;;;;3.35;2.38;;;-0.90;99.90;;;;;;4961617;28;20598;-46
2023/11/28 08:51:37;;;;;;;3.90;3.20;;;-0.90;99.90;;;;;;4965796;28;20106;-48
2023/11/28 08:54:03;;;;;;;3.30;2.55;;;-0.90;99.90;;;;;;4960100;28;20108;-49
2023/11/28 08:56:28;;;;;;;2.40;2.00;;;-0.90;99.90;;;;;;4943687;28;20053;-48
2023/11/28 08:58:54;;;;;;;4.53;2.78;;;-0.90;99.90;;;;;;4990562;28;20502;-46
2023/11/28 09:01:19;;;;;;;3.42;2.58;;;-0.90;99.90;;;;;;4964836;28;20026;-46
2023/11/28 09:03:45;;;;;;;5.20;2.80;;;-0.80;99.90;;;;;;4910642;28;20105;-47
2023/11/28 09:06:10;;;;;;;4.13;2.80;;;-0.80;99.90;;;;;;4957909;28;20046;-52
2023/11/28 09:08:36;;;;;;;3.47;2.17;;;-0.70;99.90;;;;;;4945465;28;20034;-49
2023/11/28 09:11:05;;;;;;;4.05;2.78;;;-0.70;99.90;;;;;;4969194;28;20025;-58
2023/11/28 09:13:30;;;;;;;2.63;1.85;;;-0.70;99.90;;;;;;4984002;28;20122;-50
2023/11/28 09:15:56;;;;;;;2.72;2.40;;;-0.70;99.90;;;;;;4962112;28;20679;-48
2023/11/28 09:18:22;;;;;;;2.92;2.45;;;-0.60;99.90;;;;;;4944308;28;20019;-49
2023/11/28 09:20:48;;;;;;;4.00;2.25;;;-0.60;99.90;;;;;;4941700;28;20029;-54
2023/11/28 09:23:14;;;;;;;2.78;2.08;;;-0.60;99.90;;;;;;4958718;28;20175;-50
2023/11/28 09:25:40;;;;;;;2.30;1.85;;;-0.60;99.90;;;;;;4985828;28;20033;-47
2023/11/28 09:28:05;;;;;;;5.45;2.60;;;-0.70;99.90;;;;;;4931771;28;20018;-50
2023/11/28 09:30:32;;;;;;;2.92;2.00;;;-0.70;99.90;;;;;;4955389;28;20034;-49
2023/11/28 09:32:58;;;;;;;4.55;2.40;;;-0.70;99.90;;;;;;4926074;28;20049;-51
2023/11/28 09:35:23;;;;;;;5.13;2.38;;;-0.70;99.90;;;;;;4910208;28;22068;-50
2023/11/28 09:37:49;;;;;;;5.75;2.20;;;-0.70;99.90;;;;;;4985381;28;20042;-53
2023/11/28 09:40:15;;;;;;;3.50;2.17;;;-0.70;99.90;;;;;;4941655;28;21940;-49
2023/11/28 09:42:42;;;;;;;4.00;1.77;;;-0.70;99.90;;;;;;4944141;28;20022;-51
2023/11/28 09:45:08;;;;;;;2.60;1.98;;;-0.60;99.90;;;;;;4946920;28;20025;-48
2023/11/28 09:47:38;;;;;;;2.85;1.63;;;-0.60;99.90;;;;;;4945849;28;20093;-53
2023/11/28 09:50:05;;;;;;;4.93;2.17;;;-0.60;99.90;;;;;;4986993;28;20113;-48
2023/11/28 09:52:35;;;;;;;3.08;2.10;;;-0.60;99.90;;;;;;4932926;28;20089;-49
2023/11/28 09:55:00;;;;;;;1.85;1.50;;;-0.70;99.90;;;;;;4955229;28;20606;-47
2023/11/28 09:57:33;;;;;;;3.75;1.90;;;-0.70;99.90;;;;;;4950284;28;20034;-47
2023/11/28 09:59:59;;;;;;;4.00;1.80;;;-0.60;99.90;;;;;;4949170;28;20534;-48
2023/11/28 10:02:28;;;;;;;3.38;2.00;;;-0.60;99.90;;;;;;4933752;28;21846;-51
2023/11/28 10:04:54;;;;;;;2.90;2.20;;;-0.60;99.90;;;;;;4994328;28;20415;-51
2023/11/28 10:07:32;;;;;;;3.60;2.22;;;-0.60;99.90;;;;;;4986029;23;20430;-85
2023/11/28 10:10:00;;;;;;;2.53;2.00;;;-0.60;99.90;;;;;;4923970;28;20124;-84
2023/11/28 10:12:26;;;;;;;3.15;1.52;;;-0.60;99.90;;;;;;4939049;28;20030;-85
2023/11/28 10:14:53;;;;;;;3.13;2.53;;;-0.60;99.90;;;;;;4941968;28;20048;-85
2023/11/28 10:17:19;;;;;;;5.25;2.38;;;-0.60;99.90;;;;;;4957698;28;20030;-84
2023/11/28 10:19:46;;;;;;;3.47;1.83;;;-0.50;99.90;;;;;;4941692;28;20029;-84
2023/11/28 10:22:12;;;;;;;3.60;1.90;;;-0.60;99.90;;;;;;4962963;28;20433;-85
2023/11/28 10:24:39;;;;;;;2.40;2.15;;;-0.70;99.90;;;;;;4918262;28;20022;-84
2023/11/28 10:27:05;;;;;;;5.47;2.05;;;-0.70;99.90;;;;;;4927324;28;21295;-84
2023/11/28 10:29:32;;;;;;;2.50;2.25;;;-0.70;99.90;;;;;;4957880;28;20021;-85
2023/11/28 10:31:59;;;;;;;4.72;2.15;;;-0.60;99.90;;;;;;4945623;28;20036;-85
2023/11/28 10:34:25;;;;;;;3.63;1.80;;;-0.60;99.90;;;;;;4905571;28;20037;-84
2023/11/28 10:36:51;;;;;;;3.08;2.10;;;-0.60;99.90;;;;;;4912360;28;20022;-85
2023/11/28 10:39:19;;;;;;;3.33;2.20;;;-0.60;99.90;;;;;;4930483;28;20041;-84
2023/11/28 10:41:45;;;;;;;2.67;1.85;;;-0.60;99.90;;;;;;4939754;28;20005;-85
2023/11/28 10:44:10;;;;;;;2.45;1.98;;;-0.60;99.90;;;;;;4958272;28;20049;-84
2023/11/28 10:46:38;;;;;;;4.00;2.10;;;-0.60;99.90;;;;;;4922127;28;20030;-85
2023/11/28 10:49:05;;;;;;;3.92;2.10;;;-0.70;99.90;;;;;;4932348;28;20179;-87
2023/11/28 10:51:32;;;;;;;3.45;1.52;;;-0.70;99.90;;;;;;4973276;28;20334;-85
2023/11/28 10:54:09;;;;;;;2.90;1.77;;;-0.70;99.90;;;;;;4955566;28;20040;-85
2023/11/28 10:56:47;;;;;;;4.53;2.50;;;-0.80;99.90;;;;;;4934944;28;20269;-84
2023/11/28 10:59:33;;;;;;;3.03;2.10;;;-0.80;99.90;;;;;;4930983;28;20034;-85
2023/11/28 11:02:01;;;;;;;2.78;1.70;;;-0.80;99.90;;;;;;4980686;28;20116;-84
2023/11/28 11:04:28;;;;;;;2.15;1.80;;;-0.70;99.90;;;;;;4906775;28;20033;-87
2023/11/28 11:06:54;;;;;;;1.52;1.40;;;-0.70;99.90;;;;;;4931847;28;20056;-85
2023/11/28 11:09:24;;;;;;;4.70;2.08;;;-0.70;99.90;;;;;;4971287;28;20129;-85
2023/11/28 11:11:51;;;;;;;2.25;1.80;;;-0.70;99.90;;;;;;4934249;28;20433;-84
2023/11/28 11:14:42;;;;;;;3.88;2.22;;;-0.70;99.90;;;;;;4915244;28;20032;-85
2023/11/28 11:17:25;;;;;;;3.50;2.25;;;-0.70;99.90;;;;;;4963016;28;20029;-84
2023/11/28 11:19:54;;;;;;;2.10;1.60;;;-0.70;99.90;;;;;;4968794;28;20057;-84
2023/11/28 11:22:23;;;;;;;2.75;2.08;;;-0.70;99.90;;;;;;4965035;28;20045;-85
2023/11/28 11:24:49;;;;;;;2.72;1.70;;;-0.60;99.90;;;;;;4907954;28;20102;-87
2023/11/28 11:27:18;;;;;;;4.45;2.00;;;-0.70;99.90;;;;;;4982489;28;20022;-84
2023/11/28 11:29:43;;;;;;;2.10;1.90;;;-0.70;99.90;;;;;;4952902;28;20029;-86
2023/11/28 11:32:14;;;;;;;3.08;1.85;;;-0.70;99.90;;;;;;4978128;28;20397;-85
2023/11/28 11:34:53;;;;;;;2.47;1.73;;;-0.70;99.90;;;;;;4982325;28;20025;-85
2023/11/28 11:37:30;;;;;;;1.40;1.30;;;-0.70;99.90;;;;;;4944397;28;20021;-86
2023/11/28 11:39:59;;;;;;;3.63;1.60;;;-0.70;99.90;;;;;;5008716;28;20033;-85
2023/11/28 11:42:29;;;;;;;1.83;1.73;;;-0.70;99.90;;;;;;5004600;28;20108;-85
2023/11/28 11:45:08;;;;;;;3.28;1.65;;;-0.70;99.90;;;;;;5009576;28;20018;-85
2023/11/28 11:47:36;;;;;;;3.75;1.92;;;-0.70;99.90;;;;;;5007598;28;20045;-84
2023/11/28 11:50:05;;;;;;;2.17;1.70;;;-0.70;99.90;;;;;;5021551;28;20036;-86
2023/11/28 11:52:31;;;;;;;2.08;1.83;;;-0.70;99.90;;;;;;5025153;28;20029;-86
2023/11/28 11:55:08;;;;;;;3.17;1.88;;;-0.80;99.90;;;;;;5015299;28;20030;-85
2023/11/28 11:57:35;;;;;;;6.40;2.10;;;-0.70;99.90;;;;;;5015756;28;20021;-85
2023/11/28 12:00:00;;;;;;;1.60;1.50;;;-0.70;99.90;;;;;;5013420;28;20025;-85
2023/11/28 12:02:40;;;;;;;3.78;1.63;;;-0.80;99.90;;;;;;5009010;28;20041;-87
2023/11/28 12:05:06;;;;;;;3.85;1.75;;;-0.70;99.90;;;;;;5010159;28;20584;-85
2023/11/28 12:07:33;;;;;;;2.90;1.73;;;-0.80;99.90;;;;;;5016561;28;20075;-85
2023/11/28 12:10:06;;;;;;;3.47;1.52;;;-0.70;99.90;;;;;;5011514;28;20026;-85
2023/11/28 12:12:32;;;;;;;2.85;1.95;;;-0.70;99.90;;;;;;5012866;28;20030;-85
2023/11/28 12:14:58;;;;;;;2.22;1.80;;;-0.70;99.90;;;;;;5004148;28;20065;-86
2023/11/28 12:17:24;;;;;;;3.20;2.00;;;-0.70;99.90;;;;;;5007224;28;20034;-85
2023/11/28 12:19:50;;;;;;;2.33;1.63;;;-0.70;99.90;;;;;;5003763;28;20060;-85
2023/11/28 12:22:16;;;;;;;2.65;1.58;;;-0.80;99.90;;;;;;5011842;28;20022;-86
2023/11/28 12:24:43;;;;;;;3.03;1.63;;;-0.80;99.90;;;;;;5008092;28;20060;-86
2023/11/28 12:27:09;;;;;;;1.88;1.77;;;-0.80;99.90;;;;;;5013135;28;20032;-88
2023/11/28 12:29:36;;;;;;;2.50;1.70;;;-0.90;99.90;;;;;;5026758;28;20010;-88
2023/11/28 12:32:02;;;;;;;2.88;1.85;;;-0.90;99.90;;;;;;5029186;28;20093;-87
2023/11/28 12:34:29;;;;;;;1.77;1.35;;;-0.90;99.90;;;;;;5017275;28;20053;-84
2023/11/28 12:36:56;;;;;;;2.25;1.35;;;-0.90;99.90;;;;;;5009269;28;20037;-85
2023/11/28 12:39:24;;;;;;;4.22;2.00;;;-0.90;99.90;;;;;;5013336;28;20038;-84
2023/11/28 12:41:50;;;;;;;1.60;1.45;;;-1.00;99.90;;;;;;5010514;28;20091;-84
2023/11/28 12:44:22;;;;;;;4.57;1.90;;;-1.00;99.90;;;;;;5006851;28;20147;-85
2023/11/28 12:46:51;;;;;;;3.30;1.67;;;-1.00;99.90;;;;;;5013771;28;20021;-85